sensor_id;sensor_type;location;lat;lon;timestamp;temperature;humidity
6379;DHT22;3222;48.858;10.128;2023-04-06T00:00:56;3.90;99.30
6379;DHT22;3222;48.858;10.128;2023-04-06T00:03:21;3.80;99.60
6379;DHT22;3222;48.858;10.128;2023-04-06T00:05:47;3.80;99.70
6379;DHT22;3222;48.858;10.128;2023-04-06T00:08:13;3.90;99.10
6379;DHT22;3222;48.858;10.128;2023-04-06T00:10:39;3.90;99.10
6379;DHT22;3222;48.858;10.128;2023-04-06T00:13:06;3.90;99.10
6379;DHT22;3222;48.858;10.128;2023-04-06T00:15:32;3.90;98.90
6379;DHT22;3222;48.858;10.128;2023-04-06T00:17:57;3.60;99.20
6379;DHT22;3222;48.858;10.128;2023-04-06T00:20:23;3.60;99.40
6379;DHT22;3222;48.858;10.128;2023-04-06T00:22:49;3.50;99.50
6379;DHT22;3222;48.858;10.128;2023-04-06T00:25:15;3.40;99.90
6379;DHT22;3222;48.858;10.128;2023-04-06T00:27:41;3.50;99.90
6379;DHT22;3222;48.858;10.128;2023-04-06T00:30:07;3.60;99.90
6379;DHT22;3222;48.858;10.128;2023-04-06T00:32:36;3.50;99.90
6379;DHT22;3222;48.858;10.128;2023-04-06T00:35:06;3.40;99.90
6379;DHT22;3222;48.858;10.128;2023-04-06T00:37:32;3.40;99.90
6379;DHT22;3222;48.858;10.128;2023-04-06T00:39:58;3.50;99.90
6379;DHT22;3222;48.858;10.128;2023-04-06T00:42:24;3.50;99.90
6379;DHT22;3222;48.858;10.128;2023-04-06T00:44:58;3.40;99.90
6379;DHT22;3222;48.858;10.128;2023-04-06T00:47:25;3.40;99.90
6379;DHT22;3222;48.858;10.128;2023-04-06T00:49:52;3.30;99.90
6379;DHT22;3222;48.858;10.128;2023-04-06T00:52:17;3.60;99.90
6379;DHT22;3222;48.858;10.128;2023-04-06T00:54:46;3.50;99.90
6379;DHT22;3222;48.858;10.128;2023-04-06T00:57:13;3.30;99.90
6379;DHT22;3222;48.858;10.128;2023-04-06T00:59:39;3.30;99.90
6379;DHT22;3222;48.858;10.128;2023-04-06T01:02:08;3.40;99.90
6379;DHT22;3222;48.858;10.128;2023-04-06T01:04:41;3.50;99.90
6379;DHT22;3222;48.858;10.128;2023-04-06T01:07:13;3.50;99.90
6379;DHT22;3222;48.858;10.128;2023-04-06T01:09:47;3.40;99.90
6379;DHT22;3222;48.858;10.128;2023-04-06T01:12:19;3.30;99.90
6379;DHT22;3222;48.858;10.128;2023-04-06T01:14:46;3.40;99.90
6379;DHT22;3222;48.858;10.128;2023-04-06T01:17:12;3.40;99.90
6379;DHT22;3222;48.858;10.128;2023-04-06T01:19:38;3.30;99.90
6379;DHT22;3222;48.858;10.128;2023-04-06T01:22:06;3.30;99.90
6379;DHT22;3222;48.858;10.128;2023-04-06T01:24:42;3.20;99.90
6379;DHT22;3222;48.858;10.128;2023-04-06T01:27:31;3.20;99.90
6379;DHT22;3222;48.858;10.128;2023-04-06T01:30:17;3.30;99.90
6379;DHT22;3222;48.858;10.128;2023-04-06T01:32:50;3.20;99.90
6379;DHT22;3222;48.858;10.128;2023-04-06T01:35:23;3.20;99.90
6379;DHT22;3222;48.858;10.128;2023-04-06T01:37:59;3.20;99.90
6379;DHT22;3222;48.858;10.128;2023-04-06T01:40:30;3.30;99.90
6379;DHT22;3222;48.858;10.128;2023-04-06T01:42:56;3.40;99.90
6379;DHT22;3222;48.858;10.128;2023-04-06T01:45:30;3.50;99.80
6379;DHT22;3222;48.858;10.128;2023-04-06T01:48:01;3.30;99.90
6379;DHT22;3222;48.858;10.128;2023-04-06T01:50:28;3.20;99.90
6379;DHT22;3222;48.858;10.128;2023-04-06T01:52:54;3.30;99.90
6379;DHT22;3222;48.858;10.128;2023-04-06T01:55:21;3.30;99.90
6379;DHT22;3222;48.858;10.128;2023-04-06T01:58:14;3.30;99.90
6379;DHT22;3222;48.858;10.128;2023-04-06T02:00:40;3.30;99.90
6379;DHT22;3222;48.858;10.128;2023-04-06T02:03:06;3.30;99.90
6379;DHT22;3222;48.858;10.128;2023-04-06T02:05:34;3.10;99.90
6379;DHT22;3222;48.858;10.128;2023-04-06T02:08:12;3.10;99.90
6379;DHT22;3222;48.858;10.128;2023-04-06T02:10:38;3.00;99.90
6379;DHT22;3222;48.858;10.128;2023-04-06T02:13:12;3.00;99.90
6379;DHT22;3222;48.858;10.128;2023-04-06T02:15:39;3.10;99.90
6379;DHT22;3222;48.858;10.128;2023-04-06T02:18:05;3.10;99.90
6379;DHT22;3222;48.858;10.128;2023-04-06T02:20:31;3.10;99.90
6379;DHT22;3222;48.858;10.128;2023-04-06T02:22:59;3.10;99.90
6379;DHT22;3222;48.858;10.128;2023-04-06T02:25:25;3.10;99.90
6379;DHT22;3222;48.858;10.128;2023-04-06T02:27:52;3.10;99.90
6379;DHT22;3222;48.858;10.128;2023-04-06T02:30:17;3.00;99.90
6379;DHT22;3222;48.858;10.128;2023-04-06T02:32:43;2.90;99.90
6379;DHT22;3222;48.858;10.128;2023-04-06T02:35:09;3.00;99.90
6379;DHT22;3222;48.858;10.128;2023-04-06T02:37:35;3.00;99.90
6379;DHT22;3222;48.858;10.128;2023-04-06T02:40:00;3.10;99.90
6379;DHT22;3222;48.858;10.128;2023-04-06T02:42:28;3.00;99.90
6379;DHT22;3222;48.858;10.128;2023-04-06T02:44:55;2.90;99.90
6379;DHT22;3222;48.858;10.128;2023-04-06T02:47:24;2.90;99.90
6379;DHT22;3222;48.858;10.128;2023-04-06T02:49:51;3.00;99.90
6379;DHT22;3222;48.858;10.128;2023-04-06T02:52:17;3.10;99.90
6379;DHT22;3222;48.858;10.128;2023-04-06T02:54:43;3.10;99.90
6379;DHT22;3222;48.858;10.128;2023-04-06T02:57:10;3.00;99.90
6379;DHT22;3222;48.858;10.128;2023-04-06T02:59:40;3.00;99.90
6379;DHT22;3222;48.858;10.128;2023-04-06T03:02:12;3.00;99.90
6379;DHT22;3222;48.858;10.128;2023-04-06T03:04:38;3.20;99.90
6379;DHT22;3222;48.858;10.128;2023-04-06T03:07:07;3.10;99.90
6379;DHT22;3222;48.858;10.128;2023-04-06T03:09:37;3.00;99.90
6379;DHT22;3222;48.858;10.128;2023-04-06T03:12:04;2.90;99.90
6379;DHT22;3222;48.858;10.128;2023-04-06T03:14:35;2.90;99.90
6379;DHT22;3222;48.858;10.128;2023-04-06T03:17:02;2.90;99.90
6379;DHT22;3222;48.858;10.128;2023-04-06T03:19:28;2.90;99.90
6379;DHT22;3222;48.858;10.128;2023-04-06T03:21:58;3.00;99.90
6379;DHT22;3222;48.858;10.128;2023-04-06T03:24:24;2.90;99.90
6379;DHT22;3222;48.858;10.128;2023-04-06T03:26:50;2.90;99.90
6379;DHT22;3222;48.858;10.128;2023-04-06T03:29:15;2.80;99.90
6379;DHT22;3222;48.858;10.128;2023-04-06T03:31:41;2.80;99.90
6379;DHT22;3222;48.858;10.128;2023-04-06T03:34:20;2.70;99.90
6379;DHT22;3222;48.858;10.128;2023-04-06T03:36:46;2.70;99.90
6379;DHT22;3222;48.858;10.128;2023-04-06T03:39:12;2.70;99.90
6379;DHT22;3222;48.858;10.128;2023-04-06T03:41:41;2.70;99.90
6379;DHT22;3222;48.858;10.128;2023-04-06T03:44:26;2.60;99.90
6379;DHT22;3222;48.858;10.128;2023-04-06T03:46:56;2.60;99.90
6379;DHT22;3222;48.858;10.128;2023-04-06T03:49:24;2.50;99.90
6379;DHT22;3222;48.858;10.128;2023-04-06T03:51:53;2.50;99.90
6379;DHT22;3222;48.858;10.128;2023-04-06T03:54:25;2.50;99.90
6379;DHT22;3222;48.858;10.128;2023-04-06T03:56:59;2.40;99.90
6379;DHT22;3222;48.858;10.128;2023-04-06T03:59:26;2.30;99.90
6379;DHT22;3222;48.858;10.128;2023-04-06T04:01:52;2.30;99.90
6379;DHT22;3222;48.858;10.128;2023-04-06T04:04:18;2.30;99.90
6379;DHT22;3222;48.858;10.128;2023-04-06T04:06:43;2.30;99.90
6379;DHT22;3222;48.858;10.128;2023-04-06T04:09:09;2.30;99.90
6379;DHT22;3222;48.858;10.128;2023-04-06T04:11:35;2.30;99.90
6379;DHT22;3222;48.858;10.128;2023-04-06T04:14:00;2.20;99.90
6379;DHT22;3222;48.858;10.128;2023-04-06T04:16:26;2.30;99.90
6379;DHT22;3222;48.858;10.128;2023-04-06T04:18:52;2.20;99.90
6379;DHT22;3222;48.858;10.128;2023-04-06T04:21:18;2.20;99.90
6379;DHT22;3222;48.858;10.128;2023-04-06T04:23:43;2.20;99.90
6379;DHT22;3222;48.858;10.128;2023-04-06T04:26:09;2.20;99.90
6379;DHT22;3222;48.858;10.128;2023-04-06T04:28:35;2.20;99.90
6379;DHT22;3222;48.858;10.128;2023-04-06T04:31:01;2.10;99.90
6379;DHT22;3222;48.858;10.128;2023-04-06T04:33:30;2.10;99.90
6379;DHT22;3222;48.858;10.128;2023-04-06T04:35:57;2.10;99.90
6379;DHT22;3222;48.858;10.128;2023-04-06T04:38:26;2.10;99.90
6379;DHT22;3222;48.858;10.128;2023-04-06T04:40:54;2.00;99.90
6379;DHT22;3222;48.858;10.128;2023-04-06T04:43:21;2.00;99.90
6379;DHT22;3222;48.858;10.128;2023-04-06T04:45:47;2.00;99.90
6379;DHT22;3222;48.858;10.128;2023-04-06T04:48:38;2.00;99.90
6379;DHT22;3222;48.858;10.128;2023-04-06T04:51:05;1.90;99.90
6379;DHT22;3222;48.858;10.128;2023-04-06T04:53:56;1.90;99.90
6379;DHT22;3222;48.858;10.128;2023-04-06T04:56:26;1.90;99.90
6379;DHT22;3222;48.858;10.128;2023-04-06T04:58:59;1.90;99.90
6379;DHT22;3222;48.858;10.128;2023-04-06T05:01:28;1.90;99.90
6379;DHT22;3222;48.858;10.128;2023-04-06T05:03:54;1.90;99.90
6379;DHT22;3222;48.858;10.128;2023-04-06T05:06:21;1.90;99.90
6379;DHT22;3222;48.858;10.128;2023-04-06T05:08:47;1.80;99.90
6379;DHT22;3222;48.858;10.128;2023-04-06T05:11:13;1.80;99.90
6379;DHT22;3222;48.858;10.128;2023-04-06T05:13:44;1.70;99.90
6379;DHT22;3222;48.858;10.128;2023-04-06T05:16:21;1.70;99.90
6379;DHT22;3222;48.858;10.128;2023-04-06T05:18:49;1.70;99.90
6379;DHT22;3222;48.858;10.128;2023-04-06T05:21:15;1.60;99.90
6379;DHT22;3222;48.858;10.128;2023-04-06T05:24:04;1.70;99.90
6379;DHT22;3222;48.858;10.128;2023-04-06T05:26:31;1.70;99.90
6379;DHT22;3222;48.858;10.128;2023-04-06T05:29:02;1.70;99.90
6379;DHT22;3222;48.858;10.128;2023-04-06T05:31:32;1.70;99.90
6379;DHT22;3222;48.858;10.128;2023-04-06T05:33:58;1.60;99.90
6379;DHT22;3222;48.858;10.128;2023-04-06T05:36:30;1.60;99.90
6379;DHT22;3222;48.858;10.128;2023-04-06T05:38:58;1.60;99.90
6379;DHT22;3222;48.858;10.128;2023-04-06T05:41:37;1.70;99.90
6379;DHT22;3222;48.858;10.128;2023-04-06T05:44:03;1.70;99.90
6379;DHT22;3222;48.858;10.128;2023-04-06T05:46:30;1.70;99.90
6379;DHT22;3222;48.858;10.128;2023-04-06T05:48:58;1.70;99.90
6379;DHT22;3222;48.858;10.128;2023-04-06T05:51:27;1.70;99.90
6379;DHT22;3222;48.858;10.128;2023-04-06T05:53:53;1.60;99.90
6379;DHT22;3222;48.858;10.128;2023-04-06T05:56:19;1.70;99.90
6379;DHT22;3222;48.858;10.128;2023-04-06T05:58:45;1.70;99.90
6379;DHT22;3222;48.858;10.128;2023-04-06T06:01:14;1.60;99.90
6379;DHT22;3222;48.858;10.128;2023-04-06T06:03:44;1.60;99.90
6379;DHT22;3222;48.858;10.128;2023-04-06T06:06:10;1.70;99.90
6379;DHT22;3222;48.858;10.128;2023-04-06T06:08:49;1.70;99.90
6379;DHT22;3222;48.858;10.128;2023-04-06T06:11:17;1.60;99.90
6379;DHT22;3222;48.858;10.128;2023-04-06T06:13:42;1.70;99.90
6379;DHT22;3222;48.858;10.128;2023-04-06T06:16:08;1.80;99.90
6379;DHT22;3222;48.858;10.128;2023-04-06T06:18:40;1.80;99.90
6379;DHT22;3222;48.858;10.128;2023-04-06T06:21:07;1.70;99.90
6379;DHT22;3222;48.858;10.128;2023-04-06T06:23:33;1.80;99.90
6379;DHT22;3222;48.858;10.128;2023-04-06T06:25:59;1.80;99.90
6379;DHT22;3222;48.858;10.128;2023-04-06T06:28:27;2.00;99.90
6379;DHT22;3222;48.858;10.128;2023-04-06T06:30:53;2.20;99.90
6379;DHT22;3222;48.858;10.128;2023-04-06T06:33:21;2.20;99.90
6379;DHT22;3222;48.858;10.128;2023-04-06T06:35:50;2.10;99.90
6379;DHT22;3222;48.858;10.128;2023-04-06T06:38:17;2.30;99.90
6379;DHT22;3222;48.858;10.128;2023-04-06T06:40:43;2.30;99.90
6379;DHT22;3222;48.858;10.128;2023-04-06T06:43:09;2.40;99.90
6379;DHT22;3222;48.858;10.128;2023-04-06T06:45:53;2.40;99.90
6379;DHT22;3222;48.858;10.128;2023-04-06T06:48:18;2.40;99.90
6379;DHT22;3222;48.858;10.128;2023-04-06T06:50:44;2.40;99.90
6379;DHT22;3222;48.858;10.128;2023-04-06T06:53:12;2.40;99.90
6379;DHT22;3222;48.858;10.128;2023-04-06T06:55:38;2.60;99.90
6379;DHT22;3222;48.858;10.128;2023-04-06T06:58:03;2.60;99.90
6379;DHT22;3222;48.858;10.128;2023-04-06T07:00:29;2.90;99.90
6379;DHT22;3222;48.858;10.128;2023-04-06T07:02:55;2.90;99.90
6379;DHT22;3222;48.858;10.128;2023-04-06T07:05:22;2.80;99.90
6379;DHT22;3222;48.858;10.128;2023-04-06T07:07:48;3.00;99.90
6379;DHT22;3222;48.858;10.128;2023-04-06T07:10:14;3.10;99.90
6379;DHT22;3222;48.858;10.128;2023-04-06T07:12:40;3.20;99.90
6379;DHT22;3222;48.858;10.128;2023-04-06T07:15:06;3.30;99.90
6379;DHT22;3222;48.858;10.128;2023-04-06T07:17:33;3.40;99.90
6379;DHT22;3222;48.858;10.128;2023-04-06T07:19:59;3.50;99.90
6379;DHT22;3222;48.858;10.128;2023-04-06T07:22:25;3.50;99.90
6379;DHT22;3222;48.858;10.128;2023-04-06T07:24:51;3.60;99.90
6379;DHT22;3222;48.858;10.128;2023-04-06T07:27:17;3.50;99.90
6379;DHT22;3222;48.858;10.128;2023-04-06T07:29:44;3.50;99.90
6379;DHT22;3222;48.858;10.128;2023-04-06T07:32:10;3.50;99.90
6379;DHT22;3222;48.858;10.128;2023-04-06T07:34:36;3.60;99.90
6379;DHT22;3222;48.858;10.128;2023-04-06T07:37:02;3.70;99.90
6379;DHT22;3222;48.858;10.128;2023-04-06T07:39:28;3.80;99.90
6379;DHT22;3222;48.858;10.128;2023-04-06T07:41:55;3.90;99.90
6379;DHT22;3222;48.858;10.128;2023-04-06T07:44:21;3.90;99.90
6379;DHT22;3222;48.858;10.128;2023-04-06T07:46:47;3.80;99.90
6379;DHT22;3222;48.858;10.128;2023-04-06T07:49:14;4.00;99.90
6379;DHT22;3222;48.858;10.128;2023-04-06T07:51:40;4.20;99.90
6379;DHT22;3222;48.858;10.128;2023-04-06T07:54:06;4.20;99.90
6379;DHT22;3222;48.858;10.128;2023-04-06T07:56:32;4.40;99.90
6379;DHT22;3222;48.858;10.128;2023-04-06T07:58:57;4.60;99.90
6379;DHT22;3222;48.858;10.128;2023-04-06T08:01:24;4.70;99.90
6379;DHT22;3222;48.858;10.128;2023-04-06T08:03:50;4.70;99.90
6379;DHT22;3222;48.858;10.128;2023-04-06T08:06:16;4.70;99.90
6379;DHT22;3222;48.858;10.128;2023-04-06T08:08:42;4.70;99.90
6379;DHT22;3222;48.858;10.128;2023-04-06T08:11:08;4.70;99.90
6379;DHT22;3222;48.858;10.128;2023-04-06T08:13:34;4.70;99.90
6379;DHT22;3222;48.858;10.128;2023-04-06T08:16:01;4.70;99.90
6379;DHT22;3222;48.858;10.128;2023-04-06T08:18:26;4.70;99.90
6379;DHT22;3222;48.858;10.128;2023-04-06T08:20:52;4.80;99.90
6379;DHT22;3222;48.858;10.128;2023-04-06T08:23:18;4.90;99.90
6379;DHT22;3222;48.858;10.128;2023-04-06T08:25:43;4.90;99.90
6379;DHT22;3222;48.858;10.128;2023-04-06T08:28:09;5.00;99.90
6379;DHT22;3222;48.858;10.128;2023-04-06T08:30:35;4.90;99.90
6379;DHT22;3222;48.858;10.128;2023-04-06T08:33:02;4.90;99.90
6379;DHT22;3222;48.858;10.128;2023-04-06T08:35:28;4.90;99.90
6379;DHT22;3222;48.858;10.128;2023-04-06T08:37:54;4.90;99.90
6379;DHT22;3222;48.858;10.128;2023-04-06T08:40:19;5.10;99.90
6379;DHT22;3222;48.858;10.128;2023-04-06T08:42:52;5.20;99.90
6379;DHT22;3222;48.858;10.128;2023-04-06T08:45:19;5.10;99.90
6379;DHT22;3222;48.858;10.128;2023-04-06T08:47:48;5.30;99.90
6379;DHT22;3222;48.858;10.128;2023-04-06T08:50:16;5.30;99.90
6379;DHT22;3222;48.858;10.128;2023-04-06T08:52:44;5.30;99.90
6379;DHT22;3222;48.858;10.128;2023-04-06T08:55:11;5.30;99.90
6379;DHT22;3222;48.858;10.128;2023-04-06T08:57:38;5.40;99.90
6379;DHT22;3222;48.858;10.128;2023-04-06T09:00:05;5.50;99.90
6379;DHT22;3222;48.858;10.128;2023-04-06T09:02:31;5.50;99.90
6379;DHT22;3222;48.858;10.128;2023-04-06T09:04:58;5.50;99.90
6379;DHT22;3222;48.858;10.128;2023-04-06T09:07:24;5.50;99.90
6379;DHT22;3222;48.858;10.128;2023-04-06T09:09:50;5.70;99.90
6379;DHT22;3222;48.858;10.128;2023-04-06T09:12:24;5.70;99.90
6379;DHT22;3222;48.858;10.128;2023-04-06T09:14:50;5.80;99.90
6379;DHT22;3222;48.858;10.128;2023-04-06T09:17:24;5.80;99.90
6379;DHT22;3222;48.858;10.128;2023-04-06T09:19:50;5.90;99.90
6379;DHT22;3222;48.858;10.128;2023-04-06T09:22:16;5.90;99.90
6379;DHT22;3222;48.858;10.128;2023-04-06T09:24:52;6.00;99.90
6379;DHT22;3222;48.858;10.128;2023-04-06T09:27:29;6.00;99.90
6379;DHT22;3222;48.858;10.128;2023-04-06T09:30:15;6.00;99.90
6379;DHT22;3222;48.858;10.128;2023-04-06T09:32:50;6.10;99.90
6379;DHT22;3222;48.858;10.128;2023-04-06T09:35:16;6.20;99.90
6379;DHT22;3222;48.858;10.128;2023-04-06T09:37:43;6.30;99.90
6379;DHT22;3222;48.858;10.128;2023-04-06T09:40:09;6.30;99.90
6379;DHT22;3222;48.858;10.128;2023-04-06T09:42:35;6.30;99.90
6379;DHT22;3222;48.858;10.128;2023-04-06T09:45:04;6.30;99.90
6379;DHT22;3222;48.858;10.128;2023-04-06T09:47:31;6.40;99.90
6379;DHT22;3222;48.858;10.128;2023-04-06T09:49:58;6.40;99.90
6379;DHT22;3222;48.858;10.128;2023-04-06T09:52:30;6.60;99.90
6379;DHT22;3222;48.858;10.128;2023-04-06T09:55:01;6.50;99.90
6379;DHT22;3222;48.858;10.128;2023-04-06T10:00:16;6.60;99.90
6379;DHT22;3222;48.858;10.128;2023-04-06T10:05:46;6.80;99.90
6379;DHT22;3222;48.858;10.128;2023-04-06T10:08:13;6.80;99.90
6379;DHT22;3222;48.858;10.128;2023-04-06T10:10:39;6.80;99.90
6379;DHT22;3222;48.858;10.128;2023-04-06T10:13:05;6.80;99.90
6379;DHT22;3222;48.858;10.128;2023-04-06T10:15:33;6.90;99.90
6379;DHT22;3222;48.858;10.128;2023-04-06T10:18:00;6.90;99.90
6379;DHT22;3222;48.858;10.128;2023-04-06T10:20:54;7.00;99.90
6379;DHT22;3222;48.858;10.128;2023-04-06T10:23:31;7.20;99.90
6379;DHT22;3222;48.858;10.128;2023-04-06T10:25:59;7.20;99.90
6379;DHT22;3222;48.858;10.128;2023-04-06T10:28:31;7.20;99.90
6379;DHT22;3222;48.858;10.128;2023-04-06T10:30:59;7.20;99.90
6379;DHT22;3222;48.858;10.128;2023-04-06T10:33:25;7.20;99.90
6379;DHT22;3222;48.858;10.128;2023-04-06T10:35:51;7.20;99.90
6379;DHT22;3222;48.858;10.128;2023-04-06T10:38:17;7.20;99.90
6379;DHT22;3222;48.858;10.128;2023-04-06T10:40:47;7.20;99.90
6379;DHT22;3222;48.858;10.128;2023-04-06T10:43:19;7.40;99.90
6379;DHT22;3222;48.858;10.128;2023-04-06T10:45:54;7.40;99.90
6379;DHT22;3222;48.858;10.128;2023-04-06T10:48:20;7.40;99.90
6379;DHT22;3222;48.858;10.128;2023-04-06T10:50:51;7.40;99.90
6379;DHT22;3222;48.858;10.128;2023-04-06T10:53:25;7.40;99.90
6379;DHT22;3222;48.858;10.128;2023-04-06T10:55:52;7.40;99.90
6379;DHT22;3222;48.858;10.128;2023-04-06T10:58:18;7.40;99.90
6379;DHT22;3222;48.858;10.128;2023-04-06T11:00:49;7.50;99.90
6379;DHT22;3222;48.858;10.128;2023-04-06T11:03:15;7.60;99.90
6379;DHT22;3222;48.858;10.128;2023-04-06T11:05:49;7.60;99.90
6379;DHT22;3222;48.858;10.128;2023-04-06T11:08:32;7.70;99.90
6379;DHT22;3222;48.858;10.128;2023-04-06T11:11:12;7.80;99.60
6379;DHT22;3222;48.858;10.128;2023-04-06T11:13:41;7.80;99.90
6379;DHT22;3222;48.858;10.128;2023-04-06T11:16:12;7.80;99.90
6379;DHT22;3222;48.858;10.128;2023-04-06T11:18:46;7.80;99.90
6379;DHT22;3222;48.858;10.128;2023-04-06T11:21:12;7.80;99.90
6379;DHT22;3222;48.858;10.128;2023-04-06T11:23:37;8.00;99.90
6379;DHT22;3222;48.858;10.128;2023-04-06T11:26:03;8.10;99.90
6379;DHT22;3222;48.858;10.128;2023-04-06T11:28:29;8.20;99.90
6379;DHT22;3222;48.858;10.128;2023-04-06T11:30:55;8.30;99.90
6379;DHT22;3222;48.858;10.128;2023-04-06T11:33:21;8.30;99.90
6379;DHT22;3222;48.858;10.128;2023-04-06T11:35:48;8.20;99.90
6379;DHT22;3222;48.858;10.128;2023-04-06T11:38:14;8.30;99.90
6379;DHT22;3222;48.858;10.128;2023-04-06T11:40:40;8.40;99.90
6379;DHT22;3222;48.858;10.128;2023-04-06T11:43:06;8.60;99.90
6379;DHT22;3222;48.858;10.128;2023-04-06T11:45:41;8.60;99.90
6379;DHT22;3222;48.858;10.128;2023-04-06T11:48:17;8.50;99.50
6379;DHT22;3222;48.858;10.128;2023-04-06T11:50:46;8.50;99.90
6379;DHT22;3222;48.858;10.128;2023-04-06T11:53:12;8.60;99.80
6379;DHT22;3222;48.858;10.128;2023-04-06T11:55:38;8.60;99.90
6379;DHT22;3222;48.858;10.128;2023-04-06T11:58:04;8.70;99.90
6379;DHT22;3222;48.858;10.128;2023-04-06T12:00:30;8.80;98.80
6379;DHT22;3222;48.858;10.128;2023-04-06T12:03:00;8.80;99.00
6379;DHT22;3222;48.858;10.128;2023-04-06T12:05:26;8.70;99.00
6379;DHT22;3222;48.858;10.128;2023-04-06T12:07:51;8.70;99.30
6379;DHT22;3222;48.858;10.128;2023-04-06T12:10:17;8.70;99.90
6379;DHT22;3222;48.858;10.128;2023-04-06T12:12:43;8.70;99.90
6379;DHT22;3222;48.858;10.128;2023-04-06T12:15:09;8.60;99.90
6379;DHT22;3222;48.858;10.128;2023-04-06T12:17:35;8.70;99.90
6379;DHT22;3222;48.858;10.128;2023-04-06T12:20:00;8.70;99.40
6379;DHT22;3222;48.858;10.128;2023-04-06T12:22:26;8.80;99.20
6379;DHT22;3222;48.858;10.128;2023-04-06T12:24:52;8.80;99.90
6379;DHT22;3222;48.858;10.128;2023-04-06T12:27:18;9.00;99.90
6379;DHT22;3222;48.858;10.128;2023-04-06T12:29:43;9.00;99.80
6379;DHT22;3222;48.858;10.128;2023-04-06T12:32:09;8.90;98.20
6379;DHT22;3222;48.858;10.128;2023-04-06T12:34:35;9.10;99.90
6379;DHT22;3222;48.858;10.128;2023-04-06T12:37:00;9.10;99.90
6379;DHT22;3222;48.858;10.128;2023-04-06T12:39:27;9.10;99.50
6379;DHT22;3222;48.858;10.128;2023-04-06T12:41:53;9.00;98.30
6379;DHT22;3222;48.858;10.128;2023-04-06T12:44:19;9.00;99.90
6379;DHT22;3222;48.858;10.128;2023-04-06T12:46:44;9.10;99.90
6379;DHT22;3222;48.858;10.128;2023-04-06T12:49:10;9.20;99.40
6379;DHT22;3222;48.858;10.128;2023-04-06T12:51:36;9.30;99.80
6379;DHT22;3222;48.858;10.128;2023-04-06T12:54:02;9.40;99.20
6379;DHT22;3222;48.858;10.128;2023-04-06T12:56:28;9.40;99.40
6379;DHT22;3222;48.858;10.128;2023-04-06T12:58:53;9.40;99.40
6379;DHT22;3222;48.858;10.128;2023-04-06T13:01:19;9.40;99.40
6379;DHT22;3222;48.858;10.128;2023-04-06T13:03:45;9.60;98.70
6379;DHT22;3222;48.858;10.128;2023-04-06T13:06:11;9.60;99.30
6379;DHT22;3222;48.858;10.128;2023-04-06T13:08:38;9.70;99.90
6379;DHT22;3222;48.858;10.128;2023-04-06T13:11:04;9.80;99.90
6379;DHT22;3222;48.858;10.128;2023-04-06T13:13:30;9.90;98.70
6379;DHT22;3222;48.858;10.128;2023-04-06T13:16:01;9.90;99.40
6379;DHT22;3222;48.858;10.128;2023-04-06T13:18:28;10.00;99.40
6379;DHT22;3222;48.858;10.128;2023-04-06T13:20:55;10.00;99.90
6379;DHT22;3222;48.858;10.128;2023-04-06T13:23:22;10.10;99.40
6379;DHT22;3222;48.858;10.128;2023-04-06T13:25:48;10.20;99.90
6379;DHT22;3222;48.858;10.128;2023-04-06T13:28:13;10.30;98.00
6379;DHT22;3222;48.858;10.128;2023-04-06T13:30:39;10.40;97.30
6379;DHT22;3222;48.858;10.128;2023-04-06T13:33:05;10.30;99.00
6379;DHT22;3222;48.858;10.128;2023-04-06T13:35:32;10.40;99.00
6379;DHT22;3222;48.858;10.128;2023-04-06T13:37:58;10.40;99.50
6379;DHT22;3222;48.858;10.128;2023-04-06T13:40:24;10.40;99.70
6379;DHT22;3222;48.858;10.128;2023-04-06T13:42:50;10.40;99.90
6379;DHT22;3222;48.858;10.128;2023-04-06T13:45:16;10.40;99.90
6379;DHT22;3222;48.858;10.128;2023-04-06T13:47:41;10.50;99.90
6379;DHT22;3222;48.858;10.128;2023-04-06T13:50:07;10.50;99.90
6379;DHT22;3222;48.858;10.128;2023-04-06T13:52:33;10.70;99.10
6379;DHT22;3222;48.858;10.128;2023-04-06T13:55:01;10.70;99.10
6379;DHT22;3222;48.858;10.128;2023-04-06T13:57:27;10.70;98.60
6379;DHT22;3222;48.858;10.128;2023-04-06T13:59:55;10.80;98.70
6379;DHT22;3222;48.858;10.128;2023-04-06T14:02:20;10.90;97.20
6379;DHT22;3222;48.858;10.128;2023-04-06T14:04:52;11.00;98.30
6379;DHT22;3222;48.858;10.128;2023-04-06T14:07:17;11.00;98.70
6379;DHT22;3222;48.858;10.128;2023-04-06T14:09:43;11.00;97.90
6379;DHT22;3222;48.858;10.128;2023-04-06T14:12:08;11.00;96.50
6379;DHT22;3222;48.858;10.128;2023-04-06T14:14:34;11.00;97.40
6379;DHT22;3222;48.858;10.128;2023-04-06T14:17:00;11.10;97.80
6379;DHT22;3222;48.858;10.128;2023-04-06T14:19:25;11.10;97.20
6379;DHT22;3222;48.858;10.128;2023-04-06T14:21:51;11.00;97.20
6379;DHT22;3222;48.858;10.128;2023-04-06T14:24:18;11.00;97.60
6379;DHT22;3222;48.858;10.128;2023-04-06T14:26:44;11.10;97.90
6379;DHT22;3222;48.858;10.128;2023-04-06T14:29:10;11.10;96.80
6379;DHT22;3222;48.858;10.128;2023-04-06T14:31:36;11.10;96.90
6379;DHT22;3222;48.858;10.128;2023-04-06T14:34:02;11.10;96.30
6379;DHT22;3222;48.858;10.128;2023-04-06T14:36:29;11.10;96.70
6379;DHT22;3222;48.858;10.128;2023-04-06T14:39:02;11.20;96.10
6379;DHT22;3222;48.858;10.128;2023-04-06T14:41:30;11.00;96.80
6379;DHT22;3222;48.858;10.128;2023-04-06T14:43:56;11.00;96.80
6379;DHT22;3222;48.858;10.128;2023-04-06T14:46:22;11.20;97.00
6379;DHT22;3222;48.858;10.128;2023-04-06T14:48:48;11.20;97.00
6379;DHT22;3222;48.858;10.128;2023-04-06T14:51:13;11.20;96.50
6379;DHT22;3222;48.858;10.128;2023-04-06T14:53:39;11.20;96.20
6379;DHT22;3222;48.858;10.128;2023-04-06T14:56:06;11.10;95.00
6379;DHT22;3222;48.858;10.128;2023-04-06T14:58:31;11.30;95.70
6379;DHT22;3222;48.858;10.128;2023-04-06T15:01:01;11.30;96.30
6379;DHT22;3222;48.858;10.128;2023-04-06T15:03:28;11.40;96.00
6379;DHT22;3222;48.858;10.128;2023-04-06T15:05:55;11.40;95.90
6379;DHT22;3222;48.858;10.128;2023-04-06T15:08:22;11.40;95.90
6379;DHT22;3222;48.858;10.128;2023-04-06T15:10:49;11.30;96.50
6379;DHT22;3222;48.858;10.128;2023-04-06T15:13:15;11.50;95.80
6379;DHT22;3222;48.858;10.128;2023-04-06T15:15:42;11.60;94.90
6379;DHT22;3222;48.858;10.128;2023-04-06T15:18:08;11.70;94.50
6379;DHT22;3222;48.858;10.128;2023-04-06T15:20:34;11.50;94.30
6379;DHT22;3222;48.858;10.128;2023-04-06T15:23:01;11.40;95.00
6379;DHT22;3222;48.858;10.128;2023-04-06T15:25:27;11.30;95.00
6379;DHT22;3222;48.858;10.128;2023-04-06T15:27:56;11.40;95.10
6379;DHT22;3222;48.858;10.128;2023-04-06T15:30:22;11.30;94.60
6379;DHT22;3222;48.858;10.128;2023-04-06T15:32:57;11.20;94.90
6379;DHT22;3222;48.858;10.128;2023-04-06T15:35:24;11.20;94.90
6379;DHT22;3222;48.858;10.128;2023-04-06T15:37:51;11.20;94.50
6379;DHT22;3222;48.858;10.128;2023-04-06T15:40:17;11.30;95.00
6379;DHT22;3222;48.858;10.128;2023-04-06T15:42:43;11.20;94.40
6379;DHT22;3222;48.858;10.128;2023-04-06T15:45:10;11.40;93.80
6379;DHT22;3222;48.858;10.128;2023-04-06T15:47:40;11.30;93.00
6379;DHT22;3222;48.858;10.128;2023-04-06T15:50:06;11.20;93.30
6379;DHT22;3222;48.858;10.128;2023-04-06T15:52:33;11.10;93.50
6379;DHT22;3222;48.858;10.128;2023-04-06T15:54:58;11.00;92.40
6379;DHT22;3222;48.858;10.128;2023-04-06T15:57:24;10.80;93.60
6379;DHT22;3222;48.858;10.128;2023-04-06T15:59:50;10.70;94.70
6379;DHT22;3222;48.858;10.128;2023-04-06T16:02:16;10.50;94.80
6379;DHT22;3222;48.858;10.128;2023-04-06T16:04:42;10.40;94.70
6379;DHT22;3222;48.858;10.128;2023-04-06T16:07:08;10.40;95.30
6379;DHT22;3222;48.858;10.128;2023-04-06T16:09:33;10.40;95.50